sensor_id;sensor_type;location;lat;lon;timestamp;temperature;humidity
8114;DHT22;4099;52.684;9.918;2023-07-13T00:01:44;17.00;99.90
8114;DHT22;4099;52.684;9.918;2023-07-13T00:06:47;16.90;99.90
8114;DHT22;4099;52.684;9.918;2023-07-13T00:11:53;16.80;99.90
8114;DHT22;4099;52.684;9.918;2023-07-13T00:16:56;16.70;99.90
8114;DHT22;4099;52.684;9.918;2023-07-13T00:22:00;16.70;99.90
8114;DHT22;4099;52.684;9.918;2023-07-13T00:27:04;16.70;99.90
8114;DHT22;4099;52.684;9.918;2023-07-13T00:32:07;16.40;99.90
8114;DHT22;4099;52.684;9.918;2023-07-13T00:37:11;16.20;99.90
8114;DHT22;4099;52.684;9.918;2023-07-13T00:42:14;16.10;99.90
8114;DHT22;4099;52.684;9.918;2023-07-13T00:47:16;16.00;99.90
8114;DHT22;4099;52.684;9.918;2023-07-13T00:52:18;16.10;99.90
8114;DHT22;4099;52.684;9.918;2023-07-13T00:57:22;16.10;99.90
8114;DHT22;4099;52.684;9.918;2023-07-13T01:02:26;15.80;99.90
8114;DHT22;4099;52.684;9.918;2023-07-13T01:07:30;15.80;99.90
8114;DHT22;4099;52.684;9.918;2023-07-13T01:12:34;15.60;99.90
8114;DHT22;4099;52.684;9.918;2023-07-13T01:17:36;15.50;99.90
8114;DHT22;4099;52.684;9.918;2023-07-13T01:22:39;15.40;99.90
8114;DHT22;4099;52.684;9.918;2023-07-13T01:27:41;15.30;99.90
8114;DHT22;4099;52.684;9.918;2023-07-13T01:32:43;15.20;99.90
8114;DHT22;4099;52.684;9.918;2023-07-13T01:37:47;15.00;99.90
8114;DHT22;4099;52.684;9.918;2023-07-13T01:42:49;14.90;99.90
8114;DHT22;4099;52.684;9.918;2023-07-13T01:47:54;14.80;99.90
8114;DHT22;4099;52.684;9.918;2023-07-13T01:52:57;15.00;99.90
8114;DHT22;4099;52.684;9.918;2023-07-13T01:57:59;15.00;99.90
8114;DHT22;4099;52.684;9.918;2023-07-13T02:03:01;14.90;99.90
8114;DHT22;4099;52.684;9.918;2023-07-13T02:08:04;15.00;99.90
8114;DHT22;4099;52.684;9.918;2023-07-13T02:13:06;15.40;99.90
8114;DHT22;4099;52.684;9.918;2023-07-13T02:18:09;15.00;99.90
8114;DHT22;4099;52.684;9.918;2023-07-13T02:23:12;14.80;99.90
8114;DHT22;4099;52.684;9.918;2023-07-13T02:28:14;14.80;99.90
8114;DHT22;4099;52.684;9.918;2023-07-13T02:33:16;15.00;99.90
8114;DHT22;4099;52.684;9.918;2023-07-13T02:38:19;15.20;99.90
8114;DHT22;4099;52.684;9.918;2023-07-13T02:43:21;15.20;99.90
8114;DHT22;4099;52.684;9.918;2023-07-13T02:48:23;15.10;99.90
8114;DHT22;4099;52.684;9.918;2023-07-13T02:53:26;14.60;99.90
8114;DHT22;4099;52.684;9.918;2023-07-13T02:58:28;14.30;99.90
8114;DHT22;4099;52.684;9.918;2023-07-13T03:03:30;14.30;99.90
8114;DHT22;4099;52.684;9.918;2023-07-13T03:08:34;14.40;99.90
8114;DHT22;4099;52.684;9.918;2023-07-13T03:13:36;14.50;99.90
8114;DHT22;4099;52.684;9.918;2023-07-13T03:18:39;14.30;99.90
8114;DHT22;4099;52.684;9.918;2023-07-13T03:23:45;14.00;99.90
8114;DHT22;4099;52.684;9.918;2023-07-13T03:28:47;13.90;99.90
8114;DHT22;4099;52.684;9.918;2023-07-13T03:33:53;14.00;99.90
8114;DHT22;4099;52.684;9.918;2023-07-13T03:38:59;14.40;99.90
8114;DHT22;4099;52.684;9.918;2023-07-13T03:44:31;14.60;99.90
8114;DHT22;4099;52.684;9.918;2023-07-13T03:49:32;14.60;99.90
8114;DHT22;4099;52.684;9.918;2023-07-13T03:54:36;14.30;99.90
8114;DHT22;4099;52.684;9.918;2023-07-13T03:59:37;14.10;99.90
8114;DHT22;4099;52.684;9.918;2023-07-13T04:04:39;14.10;99.90
8114;DHT22;4099;52.684;9.918;2023-07-13T04:09:42;14.00;99.90
8114;DHT22;4099;52.684;9.918;2023-07-13T04:14:45;14.00;99.90
8114;DHT22;4099;52.684;9.918;2023-07-13T04:19:47;14.00;99.90
8114;DHT22;4099;52.684;9.918;2023-07-13T04:24:50;14.00;99.90
8114;DHT22;4099;52.684;9.918;2023-07-13T04:29:52;14.20;99.90
8114;DHT22;4099;52.684;9.918;2023-07-13T04:34:54;14.40;99.90
8114;DHT22;4099;52.684;9.918;2023-07-13T04:39:59;14.80;99.90
8114;DHT22;4099;52.684;9.918;2023-07-13T04:45:00;15.10;99.90
8114;DHT22;4099;52.684;9.918;2023-07-13T04:50:03;15.10;99.90
8114;DHT22;4099;52.684;9.918;2023-07-13T04:55:08;14.90;99.90
8114;DHT22;4099;52.684;9.918;2023-07-13T05:00:10;15.00;99.90
8114;DHT22;4099;52.684;9.918;2023-07-13T05:05:13;15.30;99.90
8114;DHT22;4099;52.684;9.918;2023-07-13T05:10:16;15.40;99.90
8114;DHT22;4099;52.684;9.918;2023-07-13T05:15:20;15.50;99.90
8114;DHT22;4099;52.684;9.918;2023-07-13T05:20:22;15.60;99.90
8114;DHT22;4099;52.684;9.918;2023-07-13T05:25:25;15.60;99.90
8114;DHT22;4099;52.684;9.918;2023-07-13T05:30:26;15.60;99.90
8114;DHT22;4099;52.684;9.918;2023-07-13T05:35:28;15.90;99.90
8114;DHT22;4099;52.684;9.918;2023-07-13T05:40:31;16.10;99.90
8114;DHT22;4099;52.684;9.918;2023-07-13T05:45:33;16.30;99.90
8114;DHT22;4099;52.684;9.918;2023-07-13T05:50:35;16.50;99.90
8114;DHT22;4099;52.684;9.918;2023-07-13T05:55:42;16.60;99.90
8114;DHT22;4099;52.684;9.918;2023-07-13T06:00:44;16.60;99.90
8114;DHT22;4099;52.684;9.918;2023-07-13T06:05:46;16.70;99.90
8114;DHT22;4099;52.684;9.918;2023-07-13T06:10:49;16.90;99.90
8114;DHT22;4099;52.684;9.918;2023-07-13T06:15:50;17.10;99.90
8114;DHT22;4099;52.684;9.918;2023-07-13T06:20:52;17.30;99.90
8114;DHT22;4099;52.684;9.918;2023-07-13T06:25:55;17.40;99.90
8114;DHT22;4099;52.684;9.918;2023-07-13T06:30:57;17.60;99.90
8114;DHT22;4099;52.684;9.918;2023-07-13T06:35:59;17.80;99.90
8114;DHT22;4099;52.684;9.918;2023-07-13T06:41:04;18.10;99.90
8114;DHT22;4099;52.684;9.918;2023-07-13T06:46:06;18.20;99.90
8114;DHT22;4099;52.684;9.918;2023-07-13T06:51:08;18.40;99.90
8114;DHT22;4099;52.684;9.918;2023-07-13T06:56:11;18.60;99.90
8114;DHT22;4099;52.684;9.918;2023-07-13T07:01:13;18.80;99.90
8114;DHT22;4099;52.684;9.918;2023-07-13T07:06:17;19.10;99.90
8114;DHT22;4099;52.684;9.918;2023-07-13T07:11:23;19.40;99.90
8114;DHT22;4099;52.684;9.918;2023-07-13T07:16:25;19.70;99.90
8114;DHT22;4099;52.684;9.918;2023-07-13T07:21:27;19.90;99.90
8114;DHT22;4099;52.684;9.918;2023-07-13T07:26:31;20.00;99.90
8114;DHT22;4099;52.684;9.918;2023-07-13T07:31:33;20.10;99.90
8114;DHT22;4099;52.684;9.918;2023-07-13T07:36:35;20.50;99.90
8114;DHT22;4099;52.684;9.918;2023-07-13T07:41:38;20.50;99.90
8114;DHT22;4099;52.684;9.918;2023-07-13T07:46:39;20.10;99.90
8114;DHT22;4099;52.684;9.918;2023-07-13T07:51:41;19.60;99.90
8114;DHT22;4099;52.684;9.918;2023-07-13T07:56:45;19.20;99.90
8114;DHT22;4099;52.684;9.918;2023-07-13T08:01:46;19.10;99.90
8114;DHT22;4099;52.684;9.918;2023-07-13T08:06:50;19.70;99.90
8114;DHT22;4099;52.684;9.918;2023-07-13T08:11:54;20.70;99.90
8114;DHT22;4099;52.684;9.918;2023-07-13T08:16:56;20.90;99.90
8114;DHT22;4099;52.684;9.918;2023-07-13T08:21:57;20.60;99.90
8114;DHT22;4099;52.684;9.918;2023-07-13T08:27:01;20.40;99.90
8114;DHT22;4099;52.684;9.918;2023-07-13T08:32:03;20.60;99.90
8114;DHT22;4099;52.684;9.918;2023-07-13T08:37:06;21.20;99.90
8114;DHT22;4099;52.684;9.918;2023-07-13T08:42:16;21.70;99.90
8114;DHT22;4099;52.684;9.918;2023-07-13T08:47:21;21.50;99.90
8114;DHT22;4099;52.684;9.918;2023-07-13T08:52:30;21.40;99.90
8114;DHT22;4099;52.684;9.918;2023-07-13T08:57:35;21.50;99.90
8114;DHT22;4099;52.684;9.918;2023-07-13T09:02:42;21.80;99.90
8114;DHT22;4099;52.684;9.918;2023-07-13T09:07:58;21.90;99.90
8114;DHT22;4099;52.684;9.918;2023-07-13T09:13:15;21.80;99.90
8114;DHT22;4099;52.684;9.918;2023-07-13T09:18:26;22.40;99.90
8114;DHT22;4099;52.684;9.918;2023-07-13T09:23:29;22.90;99.90
8114;DHT22;4099;52.684;9.918;2023-07-13T09:28:38;23.20;99.90
8114;DHT22;4099;52.684;9.918;2023-07-13T09:33:41;22.60;99.90
8114;DHT22;4099;52.684;9.918;2023-07-13T09:38:43;22.40;99.90
8114;DHT22;4099;52.684;9.918;2023-07-13T09:44:07;21.80;99.90
8114;DHT22;4099;52.684;9.918;2023-07-13T09:49:10;22.00;99.90
8114;DHT22;4099;52.684;9.918;2023-07-13T09:54:19;22.10;99.90
8114;DHT22;4099;52.684;9.918;2023-07-13T09:59:24;22.60;99.40
8114;DHT22;4099;52.684;9.918;2023-07-13T10:04:32;22.70;99.90
8114;DHT22;4099;52.684;9.918;2023-07-13T10:09:34;23.70;97.90
8114;DHT22;4099;52.684;9.918;2023-07-13T10:14:37;23.60;98.30
8114;DHT22;4099;52.684;9.918;2023-07-13T10:19:41;23.20;97.90
8114;DHT22;4099;52.684;9.918;2023-07-13T10:24:45;24.00;97.10
8114;DHT22;4099;52.684;9.918;2023-07-13T10:29:52;24.80;95.30
8114;DHT22;4099;52.684;9.918;2023-07-13T10:34:55;25.20;92.70
8114;DHT22;4099;52.684;9.918;2023-07-13T10:40:01;24.20;92.10
8114;DHT22;4099;52.684;9.918;2023-07-13T10:45:13;23.50;94.00
8114;DHT22;4099;52.684;9.918;2023-07-13T10:50:18;22.90;94.00
8114;DHT22;4099;52.684;9.918;2023-07-13T10:55:31;23.30;96.70
8114;DHT22;4099;52.684;9.918;2023-07-13T11:00:43;24.10;94.40
8114;DHT22;4099;52.684;9.918;2023-07-13T11:05:49;23.60;94.40
8114;DHT22;4099;52.684;9.918;2023-07-13T11:10:54;23.30;97.00
8114;DHT22;4099;52.684;9.918;2023-07-13T11:15:57;23.60;94.90
8114;DHT22;4099;52.684;9.918;2023-07-13T11:21:14;22.70;94.00
8114;DHT22;4099;52.684;9.918;2023-07-13T11:26:39;22.80;96.00
8114;DHT22;4099;52.684;9.918;2023-07-13T11:31:42;24.60;94.80
8114;DHT22;4099;52.684;9.918;2023-07-13T11:36:45;24.80;91.50
8114;DHT22;4099;52.684;9.918;2023-07-13T11:41:51;24.70;92.10
8114;DHT22;4099;52.684;9.918;2023-07-13T11:46:58;24.10;91.50
8114;DHT22;4099;52.684;9.918;2023-07-13T11:52:03;23.90;92.30
8114;DHT22;4099;52.684;9.918;2023-07-13T11:57:24;24.00;91.40
8114;DHT22;4099;52.684;9.918;2023-07-13T12:02:32;23.20;92.20
8114;DHT22;4099;52.684;9.918;2023-07-13T12:07:35;22.70;92.80
8114;DHT22;4099;52.684;9.918;2023-07-13T12:12:46;23.50;93.00
8114;DHT22;4099;52.684;9.918;2023-07-13T12:17:50;25.40;91.50
8114;DHT22;4099;52.684;9.918;2023-07-13T12:22:52;26.70;90.40
8114;DHT22;4099;52.684;9.918;2023-07-13T12:27:54;26.00;86.40
8114;DHT22;4099;52.684;9.918;2023-07-13T12:32:59;24.70;87.90
8114;DHT22;4099;52.684;9.918;2023-07-13T12:38:01;23.70;91.20
8114;DHT22;4099;52.684;9.918;2023-07-13T12:43:03;23.10;96.40
8114;DHT22;4099;52.684;9.918;2023-07-13T12:48:16;23.00;96.30
8114;DHT22;4099;52.684;9.918;2023-07-13T12:53:21;22.80;94.40
8114;DHT22;4099;52.684;9.918;2023-07-13T12:58:26;22.50;94.30
8114;DHT22;4099;52.684;9.918;2023-07-13T13:03:32;22.40;93.60
8114;DHT22;4099;52.684;9.918;2023-07-13T13:08:35;22.30;98.00
8114;DHT22;4099;52.684;9.918;2023-07-13T13:13:37;22.30;99.90
8114;DHT22;4099;52.684;9.918;2023-07-13T13:18:40;21.30;99.90
8114;DHT22;4099;52.684;9.918;2023-07-13T13:23:43;20.10;99.90
8114;DHT22;4099;52.684;9.918;2023-07-13T13:28:46;18.20;99.90
8114;DHT22;4099;52.684;9.918;2023-07-13T13:33:50;17.10;99.90
8114;DHT22;4099;52.684;9.918;2023-07-13T13:38:52;16.80;99.90
8114;DHT22;4099;52.684;9.918;2023-07-13T13:43:54;16.60;99.90
8114;DHT22;4099;52.684;9.918;2023-07-13T13:48:57;17.00;99.90
8114;DHT22;4099;52.684;9.918;2023-07-13T13:53:59;17.50;99.90
8114;DHT22;4099;52.684;9.918;2023-07-13T13:59:02;18.10;99.90
8114;DHT22;4099;52.684;9.918;2023-07-13T14:04:08;18.90;99.90
8114;DHT22;4099;52.684;9.918;2023-07-13T14:09:11;19.30;99.90
8114;DHT22;4099;52.684;9.918;2023-07-13T14:14:17;20.40;99.90
8114;DHT22;4099;52.684;9.918;2023-07-13T14:19:22;20.90;99.90
8114;DHT22;4099;52.684;9.918;2023-07-13T14:24:25;20.90;99.90
8114;DHT22;4099;52.684;9.918;2023-07-13T14:29:26;20.60;99.90
8114;DHT22;4099;52.684;9.918;2023-07-13T14:34:30;20.40;99.90
8114;DHT22;4099;52.684;9.918;2023-07-13T14:39:31;20.60;99.90
8114;DHT22;4099;52.684;9.918;2023-07-13T14:44:33;21.40;99.90
8114;DHT22;4099;52.684;9.918;2023-07-13T14:49:38;21.10;99.90
8114;DHT22;4099;52.684;9.918;2023-07-13T14:54:41;20.40;99.90
8114;DHT22;4099;52.684;9.918;2023-07-13T14:59:44;19.80;99.90
8114;DHT22;4099;52.684;9.918;2023-07-13T15:04:47;19.40;99.90
8114;DHT22;4099;52.684;9.918;2023-07-13T15:09:49;19.10;99.90
8114;DHT22;4099;52.684;9.918;2023-07-13T15:14:51;19.00;99.90
8114;DHT22;4099;52.684;9.918;2023-07-13T15:19:55;19.10;99.90
8114;DHT22;4099;52.684;9.918;2023-07-13T15:24:57;19.10;99.90
8114;DHT22;4099;52.684;9.918;2023-07-13T15:30:00;19.10;99.90
8114;DHT22;4099;52.684;9.918;2023-07-13T15:35:04;19.20;99.90
8114;DHT22;4099;52.684;9.918;2023-07-13T15:40:08;19.10;99.90
8114;DHT22;4099;52.684;9.918;2023-07-13T15:45:18;18.90;99.90
8114;DHT22;4099;52.684;9.918;2023-07-13T15:50:23;18.80;99.90
8114;DHT22;4099;52.684;9.918;2023-07-13T15:55:25;18.70;99.90
8114;DHT22;4099;52.684;9.918;2023-07-13T16:00:27;18.70;99.90
8114;DHT22;4099;52.684;9.918;2023-07-13T16:05:30;19.00;99.90
8114;DHT22;4099;52.684;9.918;2023-07-13T16:10:34;19.40;99.90
8114;DHT22;4099;52.684;9.918;2023-07-13T16:15:37;19.80;99.90
8114;DHT22;4099;52.684;9.918;2023-07-13T16:20:43;20.10;99.90
8114;DHT22;4099;52.684;9.918;2023-07-13T16:25:45;20.60;99.90
8114;DHT22;4099;52.684;9.918;2023-07-13T16:30:48;20.80;99.90
8114;DHT22;4099;52.684;9.918;2023-07-13T16:35:55;21.00;99.90
8114;DHT22;4099;52.684;9.918;2023-07-13T16:40:57;20.30;99.90
8114;DHT22;4099;52.684;9.918;2023-07-13T16:46:00;19.80;99.90
8114;DHT22;4099;52.684;9.918;2023-07-13T16:51:05;19.90;99.90
8114;DHT22;4099;52.684;9.918;2023-07-13T16:56:14;19.90;99.90
8114;DHT22;4099;52.684;9.918;2023-07-13T17:01:17;20.10;99.90
8114;DHT22;4099;52.684;9.918;2023-07-13T17:06:24;20.00;99.90
8114;DHT22;4099;52.684;9.918;2023-07-13T17:11:27;20.20;99.90
8114;DHT22;4099;52.684;9.918;2023-07-13T17:16:30;20.30;99.90
8114;DHT22;4099;52.684;9.918;2023-07-13T17:21:33;20.70;99.90
8114;DHT22;4099;52.684;9.918;2023-07-13T17:26:35;22.80;99.90
8114;DHT22;4099;52.684;9.918;2023-07-13T17:31:37;23.90;97.10
8114;DHT22;4099;52.684;9.918;2023-07-13T17:36:41;23.10;99.90
8114;DHT22;4099;52.684;9.918;2023-07-13T17:41:42;22.30;99.90
8114;DHT22;4099;52.684;9.918;2023-07-13T17:46:45;21.30;99.90
8114;DHT22;4099;52.684;9.918;2023-07-13T17:51:49;20.70;99.90
8114;DHT22;4099;52.684;9.918;2023-07-13T17:56:51;20.50;99.90
8114;DHT22;4099;52.684;9.918;2023-07-13T18:01:54;20.20;99.90
8114;DHT22;4099;52.684;9.918;2023-07-13T18:06:57;19.90;99.90
8114;DHT22;4099;52.684;9.918;2023-07-13T18:12:09;19.60;99.90
8114;DHT22;4099;52.684;9.918;2023-07-13T18:17:13;19.40;99.90
8114;DHT22;4099;52.684;9.918;2023-07-13T18:22:17;19.10;99.90
8114;DHT22;4099;52.684;9.918;2023-07-13T18:27:19;19.00;99.90
8114;DHT22;4099;52.684;9.918;2023-07-13T18:32:21;18.80;99.90
8114;DHT22;4099;52.684;9.918;2023-07-13T18:37:24;18.70;99.90
8114;DHT22;4099;52.684;9.918;2023-07-13T18:42:26;18.60;99.90
8114;DHT22;4099;52.684;9.918;2023-07-13T18:47:28;18.60;99.90
8114;DHT22;4099;52.684;9.918;2023-07-13T18:52:36;18.30;99.90
8114;DHT22;4099;52.684;9.918;2023-07-13T18:57:38;18.10;99.90
8114;DHT22;4099;52.684;9.918;2023-07-13T19:02:41;17.90;99.90
8114;DHT22;4099;52.684;9.918;2023-07-13T19:07:45;17.50;99.90
8114;DHT22;4099;52.684;9.918;2023-07-13T19:12:49;17.30;99.90
8114;DHT22;4099;52.684;9.918;2023-07-13T19:17:53;17.10;99.90
8114;DHT22;4099;52.684;9.918;2023-07-13T19:22:59;17.00;99.90
8114;DHT22;4099;52.684;9.918;2023-07-13T19:28:09;16.80;99.90
8114;DHT22;4099;52.684;9.918;2023-07-13T19:33:17;16.50;99.90
8114;DHT22;4099;52.684;9.918;2023-07-13T19:38:22;16.50;99.90
8114;DHT22;4099;52.684;9.918;2023-07-13T19:43:24;16.20;99.90
8114;DHT22;4099;52.684;9.918;2023-07-13T19:48:26;16.10;99.90
8114;DHT22;4099;52.684;9.918;2023-07-13T19:53:29;16.00;99.90
8114;DHT22;4099;52.684;9.918;2023-07-13T19:58:31;15.90;99.90
8114;DHT22;4099;52.684;9.918;2023-07-13T20:03:33;15.80;99.90
8114;DHT22;4099;52.684;9.918;2023-07-13T20:08:37;15.90;99.90
8114;DHT22;4099;52.684;9.918;2023-07-13T20:13:40;16.00;99.90
8114;DHT22;4099;52.684;9.918;2023-07-13T20:18:42;16.00;99.90
8114;DHT22;4099;52.684;9.918;2023-07-13T20:23:47;15.90;99.90
8114;DHT22;4099;52.684;9.918;2023-07-13T20:28:49;15.80;99.90
8114;DHT22;4099;52.684;9.918;2023-07-13T20:33:51;15.80;99.90
8114;DHT22;4099;52.684;9.918;2023-07-13T20:38:54;15.90;99.90
8114;DHT22;4099;52.684;9.918;2023-07-13T20:43:56;15.80;99.90
8114;DHT22;4099;52.684;9.918;2023-07-13T20:48:58;15.60;99.90
8114;DHT22;4099;52.684;9.918;2023-07-13T20:54:01;15.50;99.90
8114;DHT22;4099;52.684;9.918;2023-07-13T20:59:03;15.60;99.90
8114;DHT22;4099;52.684;9.918;2023-07-13T21:04:08;15.60;99.90
8114;DHT22;4099;52.684;9.918;2023-07-13T21:09:16;15.70;99.90
8114;DHT22;4099;52.684;9.918;2023-07-13T21:14:18;15.90;99.90
8114;DHT22;4099;52.684;9.918;2023-07-13T21:19:24;15.90;99.90
8114;DHT22;4099;52.684;9.918;2023-07-13T21:24:27;15.90;99.90
8114;DHT22;4099;52.684;9.918;2023-07-13T21:29:29;15.60;99.90
8114;DHT22;4099;52.684;9.918;2023-07-13T21:34:31;15.50;99.90
8114;DHT22;4099;52.684;9.918;2023-07-13T21:39:34;15.40;99.90
8114;DHT22;4099;52.684;9.918;2023-07-13T21:44:36;15.40;99.90
8114;DHT22;4099;52.684;9.918;2023-07-13T21:49:38;15.50;99.90
8114;DHT22;4099;52.684;9.918;2023-07-13T21:54:41;15.40;99.90
8114;DHT22;4099;52.684;9.918;2023-07-13T21:59:44;15.50;99.90
8114;DHT22;4099;52.684;9.918;2023-07-13T22:04:45;15.60;99.90
8114;DHT22;4099;52.684;9.918;2023-07-13T22:09:49;15.60;99.90
8114;DHT22;4099;52.684;9.918;2023-07-13T22:14:50;15.30;99.90
8114;DHT22;4099;52.684;9.918;2023-07-13T22:19:52;15.00;99.90
8114;DHT22;4099;52.684;9.918;2023-07-13T22:24:55;14.60;99.90
8114;DHT22;4099;52.684;9.918;2023-07-13T22:29:57;14.30;99.90
8114;DHT22;4099;52.684;9.918;2023-07-13T22:35:00;14.20;99.90
8114;DHT22;4099;52.684;9.918;2023-07-13T22:40:11;14.50;99.90
8114;DHT22;4099;52.684;9.918;2023-07-13T22:45:14;14.70;99.90
8114;DHT22;4099;52.684;9.918;2023-07-13T22:50:17;15.00;99.90
8114;DHT22;4099;52.684;9.918;2023-07-13T22:55:20;14.90;99.90
8114;DHT22;4099;52.684;9.918;2023-07-13T23:00:22;14.90;99.90
8114;DHT22;4099;52.684;9.918;2023-07-13T23:05:24;15.10;99.90
8114;DHT22;4099;52.684;9.918;2023-07-13T23:10:27;15.30;99.90
8114;DHT22;4099;52.684;9.918;2023-07-13T23:15:30;15.30;99.90
8114;DHT22;4099;52.684;9.918;2023-07-13T23:20:34;15.30;99.90
8114;DHT22;4099;52.684;9.918;2023-07-13T23:25:38;15.20;99.90
8114;DHT22;4099;52.684;9.918;2023-07-13T23:30:45;15.30;99.90
8114;DHT22;4099;52.684;9.918;2023-07-13T23:35:48;15.30;99.90
8114;DHT22;4099;52.684;9.918;2023-07-13T23:40:52;15.10;99.90
8114;DHT22;4099;52.684;9.918;2023-07-13T23:45:54;14.80;99.90
8114;DHT22;4099;52.684;9.918;2023-07-13T23:50:55;14.60;99.90
8114;DHT22;4099;52.684;9.918;2023-07-13T23:55:59;14.30;99.90
